sensor_id;sensor_type;location;lat;lon;timestamp;temperature;humidity
67364;HTU21D;54250;45.572;38.086;2023-03-31T00:01:40;3.68;77.58
67364;HTU21D;54250;45.572;38.086;2023-03-31T00:04:08;3.68;77.66
67364;HTU21D;54250;45.572;38.086;2023-03-31T00:06:36;3.68;77.82
67364;HTU21D;54250;45.572;38.086;2023-03-31T00:09:13;3.65;77.71
67364;HTU21D;54250;45.572;38.086;2023-03-31T00:11:49;3.67;77.83
67364;HTU21D;54250;45.572;38.086;2023-03-31T00:14:17;3.68;77.90
67364;HTU21D;54250;45.572;38.086;2023-03-31T00:16:44;3.67;78.04
67364;HTU21D;54250;45.572;38.086;2023-03-31T00:19:12;3.68;77.99
67364;HTU21D;54250;45.572;38.086;2023-03-31T00:21:43;3.68;78.06
67364;HTU21D;54250;45.572;38.086;2023-03-31T00:24:11;3.64;78.11
67364;HTU21D;54250;45.572;38.086;2023-03-31T00:26:37;3.62;78.18
67364;HTU21D;54250;45.572;38.086;2023-03-31T00:29:05;3.60;78.27
67364;HTU21D;54250;45.572;38.086;2023-03-31T00:31:31;3.56;78.30
67364;HTU21D;54250;45.572;38.086;2023-03-31T00:33:57;3.52;78.40
67364;HTU21D;54250;45.572;38.086;2023-03-31T00:36:24;3.48;78.74
67364;HTU21D;54250;45.572;38.086;2023-03-31T00:38:59;3.45;78.57
67364;HTU21D;54250;45.572;38.086;2023-03-31T00:41:28;3.43;78.53
67364;HTU21D;54250;45.572;38.086;2023-03-31T00:49:44;3.40;78.55
67364;HTU21D;54250;45.572;38.086;2023-03-31T00:52:18;3.42;78.78
67364;HTU21D;54250;45.572;38.086;2023-03-31T00:55:03;3.42;79.04
67364;HTU21D;54250;45.572;38.086;2023-03-31T00:57:32;3.43;79.29
67364;HTU21D;54250;45.572;38.086;2023-03-31T01:00:05;3.43;79.38
67364;HTU21D;54250;45.572;38.086;2023-03-31T01:02:44;3.44;79.39
67364;HTU21D;54250;45.572;38.086;2023-03-31T01:05:23;3.43;79.65
67364;HTU21D;54250;45.572;38.086;2023-03-31T01:07:51;3.41;79.62
67364;HTU21D;54250;45.572;38.086;2023-03-31T01:10:17;3.42;79.95
67364;HTU21D;54250;45.572;38.086;2023-03-31T01:12:47;3.44;80.04
67364;HTU21D;54250;45.572;38.086;2023-03-31T01:15:15;3.42;80.27
67364;HTU21D;54250;45.572;38.086;2023-03-31T01:17:42;3.40;80.67
67364;HTU21D;54250;45.572;38.086;2023-03-31T01:20:28;3.42;81.04
67364;HTU21D;54250;45.572;38.086;2023-03-31T01:28:47;3.41;81.77
67364;HTU21D;54250;45.572;38.086;2023-03-31T01:53:14;3.15;82.62
67364;HTU21D;54250;45.572;38.086;2023-03-31T01:56:29;3.13;82.41
67364;HTU21D;54250;45.572;38.086;2023-03-31T01:58:39;3.11;82.63
67364;HTU21D;54250;45.572;38.086;2023-03-31T02:04:13;3.03;82.80
67364;HTU21D;54250;45.572;38.086;2023-03-31T02:06:45;3.02;82.99
67364;HTU21D;54250;45.572;38.086;2023-03-31T02:09:16;2.89;82.75
67364;HTU21D;54250;45.572;38.086;2023-03-31T02:11:44;2.87;83.26
67364;HTU21D;54250;45.572;38.086;2023-03-31T02:14:15;2.85;83.00
67364;HTU21D;54250;45.572;38.086;2023-03-31T02:16:45;2.88;83.19
67364;HTU21D;54250;45.572;38.086;2023-03-31T02:19:14;2.94;83.07
67364;HTU21D;54250;45.572;38.086;2023-03-31T02:21:45;2.98;82.62
67364;HTU21D;54250;45.572;38.086;2023-03-31T02:24:18;3.04;82.64
67364;HTU21D;54250;45.572;38.086;2023-03-31T02:26:52;3.10;82.38
67364;HTU21D;54250;45.572;38.086;2023-03-31T02:29:20;3.15;82.60
67364;HTU21D;54250;45.572;38.086;2023-03-31T02:32:03;3.19;82.83
67364;HTU21D;54250;45.572;38.086;2023-03-31T02:34:34;3.19;82.75
67364;HTU21D;54250;45.572;38.086;2023-03-31T02:37:01;3.23;82.77
67364;HTU21D;54250;45.572;38.086;2023-03-31T02:39:33;3.26;82.83
67364;HTU21D;54250;45.572;38.086;2023-03-31T02:42:00;3.27;82.81
67364;HTU21D;54250;45.572;38.086;2023-03-31T02:44:33;3.29;82.87
67364;HTU21D;54250;45.572;38.086;2023-03-31T02:47:01;3.30;82.84
67364;HTU21D;54250;45.572;38.086;2023-03-31T02:49:28;3.32;82.64
67364;HTU21D;54250;45.572;38.086;2023-03-31T02:52:33;3.32;82.40
67364;HTU21D;54250;45.572;38.086;2023-03-31T02:55:37;3.34;82.57
67364;HTU21D;54250;45.572;38.086;2023-03-31T03:12:22;3.36;83.03
67364;HTU21D;54250;45.572;38.086;2023-03-31T03:17:26;3.44;83.10
67364;HTU21D;54250;45.572;38.086;2023-03-31T03:19:55;3.46;83.16
67364;HTU21D;54250;45.572;38.086;2023-03-31T03:22:22;3.50;83.10
67364;HTU21D;54250;45.572;38.086;2023-03-31T03:24:48;3.54;83.04
67364;HTU21D;54250;45.572;38.086;2023-03-31T03:27:14;3.57;83.10
67364;HTU21D;54250;45.572;38.086;2023-03-31T03:29:40;3.58;82.93
67364;HTU21D;54250;45.572;38.086;2023-03-31T03:32:08;3.61;83.18
67364;HTU21D;54250;45.572;38.086;2023-03-31T03:34:34;3.65;83.42
67364;HTU21D;54250;45.572;38.086;2023-03-31T03:37:00;3.67;83.20
67364;HTU21D;54250;45.572;38.086;2023-03-31T03:39:26;3.65;83.11
67364;HTU21D;54250;45.572;38.086;2023-03-31T03:41:52;3.67;83.20
67364;HTU21D;54250;45.572;38.086;2023-03-31T03:44:18;3.67;83.30
67364;HTU21D;54250;45.572;38.086;2023-03-31T03:46:44;3.65;83.22
67364;HTU21D;54250;45.572;38.086;2023-03-31T03:49:11;3.65;83.21
67364;HTU21D;54250;45.572;38.086;2023-03-31T03:51:37;3.70;83.20
67364;HTU21D;54250;45.572;38.086;2023-03-31T03:54:03;3.76;83.16
67364;HTU21D;54250;45.572;38.086;2023-03-31T03:56:29;3.80;83.07
67364;HTU21D;54250;45.572;38.086;2023-03-31T03:58:55;3.84;83.00
67364;HTU21D;54250;45.572;38.086;2023-03-31T04:01:21;3.86;83.00
67364;HTU21D;54250;45.572;38.086;2023-03-31T04:03:47;3.87;83.04
67364;HTU21D;54250;45.572;38.086;2023-03-31T04:06:13;3.90;83.07
67364;HTU21D;54250;45.572;38.086;2023-03-31T04:08:39;3.95;83.08
67364;HTU21D;54250;45.572;38.086;2023-03-31T04:11:17;3.97;82.98
67364;HTU21D;54250;45.572;38.086;2023-03-31T04:13:44;3.98;83.01
67364;HTU21D;54250;45.572;38.086;2023-03-31T04:16:10;4.09;83.01
67364;HTU21D;54250;45.572;38.086;2023-03-31T04:18:37;4.32;82.76
67364;HTU21D;54250;45.572;38.086;2023-03-31T04:21:14;4.60;82.11
67364;HTU21D;54250;45.572;38.086;2023-03-31T04:23:51;4.87;81.81
67364;HTU21D;54250;45.572;38.086;2023-03-31T04:26:25;5.32;80.92
67364;HTU21D;54250;45.572;38.086;2023-03-31T04:28:56;5.70;80.53
67364;HTU21D;54250;45.572;38.086;2023-03-31T04:31:25;6.05;80.07
67364;HTU21D;54250;45.572;38.086;2023-03-31T04:33:52;6.16;79.87
67364;HTU21D;54250;45.572;38.086;2023-03-31T04:36:19;6.63;79.67
67364;HTU21D;54250;45.572;38.086;2023-03-31T04:38:49;7.48;77.38
67364;HTU21D;54250;45.572;38.086;2023-03-31T04:41:20;8.21;76.25
67364;HTU21D;54250;45.572;38.086;2023-03-31T04:43:46;8.67;74.84
67364;HTU21D;54250;45.572;38.086;2023-03-31T04:46:12;8.33;75.57
67364;HTU21D;54250;45.572;38.086;2023-03-31T04:48:38;7.91;76.37
67364;HTU21D;54250;45.572;38.086;2023-03-31T04:51:05;7.59;77.44
67364;HTU21D;54250;45.572;38.086;2023-03-31T04:53:31;7.42;78.00
67364;HTU21D;54250;45.572;38.086;2023-03-31T04:55:57;7.29;78.27
67364;HTU21D;54250;45.572;38.086;2023-03-31T04:58:23;7.25;78.40
67364;HTU21D;54250;45.572;38.086;2023-03-31T05:00:50;7.23;78.03
67364;HTU21D;54250;45.572;38.086;2023-03-31T05:03:16;7.32;77.89
67364;HTU21D;54250;45.572;38.086;2023-03-31T05:05:42;7.54;77.32
67364;HTU21D;54250;45.572;38.086;2023-03-31T05:08:08;7.70;76.79
67364;HTU21D;54250;45.572;38.086;2023-03-31T05:10:34;7.72;76.76
67364;HTU21D;54250;45.572;38.086;2023-03-31T05:13:00;7.70;76.83
67364;HTU21D;54250;45.572;38.086;2023-03-31T05:15:26;7.63;76.57
67364;HTU21D;54250;45.572;38.086;2023-03-31T05:17:52;7.57;76.60
67364;HTU21D;54250;45.572;38.086;2023-03-31T05:20:19;7.49;76.79
67364;HTU21D;54250;45.572;38.086;2023-03-31T05:22:45;7.60;76.79
67364;HTU21D;54250;45.572;38.086;2023-03-31T05:25:13;7.98;75.92
67364;HTU21D;54250;45.572;38.086;2023-03-31T05:27:46;8.27;75.19
67364;HTU21D;54250;45.572;38.086;2023-03-31T05:30:13;8.51;74.70
67364;HTU21D;54250;45.572;38.086;2023-03-31T05:32:40;8.90;74.47
67364;HTU21D;54250;45.572;38.086;2023-03-31T05:35:06;9.64;73.03
67364;HTU21D;54250;45.572;38.086;2023-03-31T05:37:33;10.01;72.21
67364;HTU21D;54250;45.572;38.086;2023-03-31T05:39:59;10.93;70.74
67364;HTU21D;54250;45.572;38.086;2023-03-31T05:42:25;12.20;68.23
67364;HTU21D;54250;45.572;38.086;2023-03-31T05:44:51;13.12;65.87
67364;HTU21D;54250;45.572;38.086;2023-03-31T05:47:17;13.56;65.33
67364;HTU21D;54250;45.572;38.086;2023-03-31T05:49:43;14.57;63.73
67364;HTU21D;54250;45.572;38.086;2023-03-31T05:52:10;14.66;63.55
67364;HTU21D;54250;45.572;38.086;2023-03-31T05:54:36;15.07;62.84
67364;HTU21D;54250;45.572;38.086;2023-03-31T05:57:02;14.41;63.63
67364;HTU21D;54250;45.572;38.086;2023-03-31T05:59:28;14.00;64.69
67364;HTU21D;54250;45.572;38.086;2023-03-31T06:01:56;13.46;64.85
67364;HTU21D;54250;45.572;38.086;2023-03-31T06:04:23;13.77;65.64
67364;HTU21D;54250;45.572;38.086;2023-03-31T06:06:49;14.10;62.61
67364;HTU21D;54250;45.572;38.086;2023-03-31T06:09:15;13.45;64.53
67364;HTU21D;54250;45.572;38.086;2023-03-31T06:11:42;13.55;64.98
67364;HTU21D;54250;45.572;38.086;2023-03-31T06:14:08;14.18;64.21
67364;HTU21D;54250;45.572;38.086;2023-03-31T06:16:34;16.76;59.31
67364;HTU21D;54250;45.572;38.086;2023-03-31T06:19:00;19.27;54.77
67364;HTU21D;54250;45.572;38.086;2023-03-31T06:21:26;21.53;51.72
67364;HTU21D;54250;45.572;38.086;2023-03-31T06:23:52;22.85;49.41
67364;HTU21D;54250;45.572;38.086;2023-03-31T06:26:20;23.47;48.17
67364;HTU21D;54250;45.572;38.086;2023-03-31T06:28:48;22.06;48.67
67364;HTU21D;54250;45.572;38.086;2023-03-31T06:31:16;21.54;51.34
67364;HTU21D;54250;45.572;38.086;2023-03-31T06:33:43;22.23;48.73
67364;HTU21D;54250;45.572;38.086;2023-03-31T06:36:11;22.17;49.14
67364;HTU21D;54250;45.572;38.086;2023-03-31T06:38:38;22.19;48.73
67364;HTU21D;54250;45.572;38.086;2023-03-31T06:41:05;22.01;48.34
67364;HTU21D;54250;45.572;38.086;2023-03-31T06:43:32;20.13;50.39
67364;HTU21D;54250;45.572;38.086;2023-03-31T06:45:58;20.37;51.29
67364;HTU21D;54250;45.572;38.086;2023-03-31T06:48:24;20.50;49.89
67364;HTU21D;54250;45.572;38.086;2023-03-31T06:50:55;22.23;47.38
67364;HTU21D;54250;45.572;38.086;2023-03-31T06:53:21;23.75;44.96
67364;HTU21D;54250;45.572;38.086;2023-03-31T06:55:47;24.76;41.97
67364;HTU21D;54250;45.572;38.086;2023-03-31T06:58:13;25.73;41.46
67364;HTU21D;54250;45.572;38.086;2023-03-31T07:00:39;26.09;40.16
67364;HTU21D;54250;45.572;38.086;2023-03-31T07:03:05;26.39;40.07
67364;HTU21D;54250;45.572;38.086;2023-03-31T07:05:33;26.68;39.39
67364;HTU21D;54250;45.572;38.086;2023-03-31T07:08:00;26.85;38.87
67364;HTU21D;54250;45.572;38.086;2023-03-31T07:10:28;26.11;39.85
67364;HTU21D;54250;45.572;38.086;2023-03-31T07:12:54;25.46;40.52
67364;HTU21D;54250;45.572;38.086;2023-03-31T07:15:21;24.57;41.55
67364;HTU21D;54250;45.572;38.086;2023-03-31T07:17:48;22.17;43.87
67364;HTU21D;54250;45.572;38.086;2023-03-31T07:20:17;19.84;47.21
67364;HTU21D;54250;45.572;38.086;2023-03-31T07:22:44;20.96;45.74
67364;HTU21D;54250;45.572;38.086;2023-03-31T07:25:12;22.72;42.19
67364;HTU21D;54250;45.572;38.086;2023-03-31T07:27:39;22.65;42.19
67364;HTU21D;54250;45.572;38.086;2023-03-31T07:30:06;22.83;42.05
67364;HTU21D;54250;45.572;38.086;2023-03-31T07:32:32;24.46;39.89
67364;HTU21D;54250;45.572;38.086;2023-03-31T07:34:58;26.04;38.00
67364;HTU21D;54250;45.572;38.086;2023-03-31T07:37:25;27.23;36.59
67364;HTU21D;54250;45.572;38.086;2023-03-31T07:39:51;26.51;36.20
67364;HTU21D;54250;45.572;38.086;2023-03-31T07:42:17;25.13;38.15
67364;HTU21D;54250;45.572;38.086;2023-03-31T07:44:43;26.30;36.34
67364;HTU21D;54250;45.572;38.086;2023-03-31T07:47:09;24.90;37.86
67364;HTU21D;54250;45.572;38.086;2023-03-31T07:49:35;22.70;40.48
67364;HTU21D;54250;45.572;38.086;2023-03-31T07:52:02;21.47;41.36
67364;HTU21D;54250;45.572;38.086;2023-03-31T07:54:28;21.90;40.84
67364;HTU21D;54250;45.572;38.086;2023-03-31T07:56:54;22.26;40.75
67364;HTU21D;54250;45.572;38.086;2023-03-31T07:59:20;24.04;37.88
67364;HTU21D;54250;45.572;38.086;2023-03-31T08:01:47;24.99;36.83
67364;HTU21D;54250;45.572;38.086;2023-03-31T08:04:13;25.27;35.72
67364;HTU21D;54250;45.572;38.086;2023-03-31T08:06:39;26.09;34.74
67364;HTU21D;54250;45.572;38.086;2023-03-31T08:09:05;26.70;34.51
67364;HTU21D;54250;45.572;38.086;2023-03-31T08:11:34;26.98;33.90
67364;HTU21D;54250;45.572;38.086;2023-03-31T08:14:00;26.80;34.14
67364;HTU21D;54250;45.572;38.086;2023-03-31T08:16:26;26.15;34.84
67364;HTU21D;54250;45.572;38.086;2023-03-31T08:18:52;26.43;33.50
67364;HTU21D;54250;45.572;38.086;2023-03-31T08:21:18;25.96;34.92
67364;HTU21D;54250;45.572;38.086;2023-03-31T08:23:44;24.72;35.92
67364;HTU21D;54250;45.572;38.086;2023-03-31T08:26:15;22.17;37.92
67364;HTU21D;54250;45.572;38.086;2023-03-31T08:28:45;21.79;38.85
67364;HTU21D;54250;45.572;38.086;2023-03-31T08:31:13;24.03;36.10
67364;HTU21D;54250;45.572;38.086;2023-03-31T08:33:44;24.49;35.08
67364;HTU21D;54250;45.572;38.086;2023-03-31T08:36:10;24.49;35.27
67364;HTU21D;54250;45.572;38.086;2023-03-31T08:38:38;24.88;34.73
67364;HTU21D;54250;45.572;38.086;2023-03-31T08:43:54;24.23;34.99
67364;HTU21D;54250;45.572;38.086;2023-03-31T08:46:21;22.63;34.50
67364;HTU21D;54250;45.572;38.086;2023-03-31T08:48:51;23.46;35.03
67364;HTU21D;54250;45.572;38.086;2023-03-31T08:51:46;22.14;35.55
67364;HTU21D;54250;45.572;38.086;2023-03-31T08:54:32;19.96;39.52
67364;HTU21D;54250;45.572;38.086;2023-03-31T08:56:59;21.22;37.19
67364;HTU21D;54250;45.572;38.086;2023-03-31T08:59:29;22.88;35.68
67364;HTU21D;54250;45.572;38.086;2023-03-31T09:07:47;21.80;38.46
67364;HTU21D;54250;45.572;38.086;2023-03-31T09:10:52;22.71;37.08
67364;HTU21D;54250;45.572;38.086;2023-03-31T09:16:12;18.89;42.19
67364;HTU21D;54250;45.572;38.086;2023-03-31T09:18:40;19.54;41.18
67364;HTU21D;54250;45.572;38.086;2023-03-31T09:21:47;18.13;42.39
67364;HTU21D;54250;45.572;38.086;2023-03-31T09:24:31;19.68;40.36
67364;HTU21D;54250;45.572;38.086;2023-03-31T09:27:06;21.31;38.13
67364;HTU21D;54250;45.572;38.086;2023-03-31T09:32:24;23.00;37.11
67364;HTU21D;54250;45.572;38.086;2023-03-31T09:34:54;23.87;35.72
67364;HTU21D;54250;45.572;38.086;2023-03-31T09:37:24;23.27;35.96
67364;HTU21D;54250;45.572;38.086;2023-03-31T09:39:52;20.83;39.34
67364;HTU21D;54250;45.572;38.086;2023-03-31T09:42:18;21.03;39.64
67364;HTU21D;54250;45.572;38.086;2023-03-31T09:44:45;22.23;37.13
67364;HTU21D;54250;45.572;38.086;2023-03-31T09:47:31;22.84;36.50
67364;HTU21D;54250;45.572;38.086;2023-03-31T09:49:58;21.66;37.88
67364;HTU21D;54250;45.572;38.086;2023-03-31T09:52:30;20.33;39.44
67364;HTU21D;54250;45.572;38.086;2023-03-31T09:55:02;19.83;40.88
67364;HTU21D;54250;45.572;38.086;2023-03-31T09:57:33;20.88;39.01
67364;HTU21D;54250;45.572;38.086;2023-03-31T10:00:03;20.22;39.68
67364;HTU21D;54250;45.572;38.086;2023-03-31T10:02:41;18.59;41.67
67364;HTU21D;54250;45.572;38.086;2023-03-31T10:05:48;18.48;41.44
67364;HTU21D;54250;45.572;38.086;2023-03-31T10:08:22;17.75;41.67
67364;HTU21D;54250;45.572;38.086;2023-03-31T10:10:50;17.20;43.27
67364;HTU21D;54250;45.572;38.086;2023-03-31T10:13:19;17.60;43.00
67364;HTU21D;54250;45.572;38.086;2023-03-31T10:15:54;17.26;43.56
67364;HTU21D;54250;45.572;38.086;2023-03-31T10:18:40;16.75;44.77
67364;HTU21D;54250;45.572;38.086;2023-03-31T10:21:22;16.54;45.38
67364;HTU21D;54250;45.572;38.086;2023-03-31T10:23:50;15.95;45.83
67364;HTU21D;54250;45.572;38.086;2023-03-31T10:26:19;15.41;46.12
67364;HTU21D;54250;45.572;38.086;2023-03-31T10:28:47;14.89;46.70
67364;HTU21D;54250;45.572;38.086;2023-03-31T10:31:18;14.73;47.10
67364;HTU21D;54250;45.572;38.086;2023-03-31T10:33:47;14.82;46.61
67364;HTU21D;54250;45.572;38.086;2023-03-31T10:36:27;14.65;46.93
67364;HTU21D;54250;45.572;38.086;2023-03-31T10:38:54;14.67;47.13
67364;HTU21D;54250;45.572;38.086;2023-03-31T10:41:23;14.49;46.73
67364;HTU21D;54250;45.572;38.086;2023-03-31T10:43:52;14.45;47.41
67364;HTU21D;54250;45.572;38.086;2023-03-31T10:46:19;14.68;47.36
67364;HTU21D;54250;45.572;38.086;2023-03-31T10:48:46;14.52;47.30
67364;HTU21D;54250;45.572;38.086;2023-03-31T10:53:49;14.45;47.65
67364;HTU21D;54250;45.572;38.086;2023-03-31T10:58:54;14.94;47.80
67364;HTU21D;54250;45.572;38.086;2023-03-31T11:07:23;14.22;47.67
67364;HTU21D;54250;45.572;38.086;2023-03-31T11:10:29;14.43;47.92
67364;HTU21D;54250;45.572;38.086;2023-03-31T11:18:38;14.38;48.14
67364;HTU21D;54250;45.572;38.086;2023-03-31T11:21:22;14.38;47.67
67364;HTU21D;54250;45.572;38.086;2023-03-31T11:38:01;14.32;47.93
67364;HTU21D;54250;45.572;38.086;2023-03-31T11:43:02;14.00;47.98
67364;HTU21D;54250;45.572;38.086;2023-03-31T11:46:10;14.03;48.13
67364;HTU21D;54250;45.572;38.086;2023-03-31T11:48:48;14.24;48.42
67364;HTU21D;54250;45.572;38.086;2023-03-31T11:51:29;14.43;47.86
67364;HTU21D;54250;45.572;38.086;2023-03-31T11:53:58;14.41;47.66
67364;HTU21D;54250;45.572;38.086;2023-03-31T11:56:35;14.66;47.98
67364;HTU21D;54250;45.572;38.086;2023-03-31T11:59:03;14.95;47.92
67364;HTU21D;54250;45.572;38.086;2023-03-31T12:02:23;15.03;47.67
67364;HTU21D;54250;45.572;38.086;2023-03-31T12:04:44;14.99;48.10
67364;HTU21D;54250;45.572;38.086;2023-03-31T12:07:20;14.93;48.14
67364;HTU21D;54250;45.572;38.086;2023-03-31T12:09:59;14.66;48.35
67364;HTU21D;54250;45.572;38.086;2023-03-31T12:12:34;14.54;48.38
67364;HTU21D;54250;45.572;38.086;2023-03-31T12:17:33;14.11;48.57
67364;HTU21D;54250;45.572;38.086;2023-03-31T12:20:05;13.93;48.84
67364;HTU21D;54250;45.572;38.086;2023-03-31T12:22:39;13.82;48.93
67364;HTU21D;54250;45.572;38.086;2023-03-31T12:25:15;13.90;49.21
67364;HTU21D;54250;45.572;38.086;2023-03-31T12:27:43;14.15;48.89
67364;HTU21D;54250;45.572;38.086;2023-03-31T12:30:40;14.00;48.53
67364;HTU21D;54250;45.572;38.086;2023-03-31T12:42:58;14.03;49.81
67364;HTU21D;54250;45.572;38.086;2023-03-31T12:45:28;13.90;50.01
67364;HTU21D;54250;45.572;38.086;2023-03-31T12:56:04;13.35;49.95
67364;HTU21D;54250;45.572;38.086;2023-03-31T12:58:36;13.20;50.41
67364;HTU21D;54250;45.572;38.086;2023-03-31T13:06:10;12.62;51.06
67364;HTU21D;54250;45.572;38.086;2023-03-31T13:16:32;13.05;51.01
67364;HTU21D;54250;45.572;38.086;2023-03-31T13:19:00;13.01;50.71
67364;HTU21D;54250;45.572;38.086;2023-03-31T13:21:26;12.81;50.40
67364;HTU21D;54250;45.572;38.086;2023-03-31T13:23:52;12.65;50.95
67364;HTU21D;54250;45.572;38.086;2023-03-31T13:29:20;12.77;51.37
67364;HTU21D;54250;45.572;38.086;2023-03-31T13:34:31;12.71;51.62
67364;HTU21D;54250;45.572;38.086;2023-03-31T13:40:03;12.51;51.37
67364;HTU21D;54250;45.572;38.086;2023-03-31T13:47:51;11.94;52.41
67364;HTU21D;54250;45.572;38.086;2023-03-31T13:56:25;11.67;52.99
67364;HTU21D;54250;45.572;38.086;2023-03-31T14:07:36;11.63;53.61
67364;HTU21D;54250;45.572;38.086;2023-03-31T14:10:03;11.79;53.42
67364;HTU21D;54250;45.572;38.086;2023-03-31T14:12:32;11.86;53.41
67364;HTU21D;54250;45.572;38.086;2023-03-31T14:14:59;11.85;53.46
67364;HTU21D;54250;45.572;38.086;2023-03-31T14:17:32;11.66;53.52
67364;HTU21D;54250;45.572;38.086;2023-03-31T14:29:08;11.10;54.29
67364;HTU21D;54250;45.572;38.086;2023-03-31T14:31:46;10.89;54.55
67364;HTU21D;54250;45.572;38.086;2023-03-31T14:39:32;10.42;55.39
67364;HTU21D;54250;45.572;38.086;2023-03-31T14:42:04;10.16;55.80
67364;HTU21D;54250;45.572;38.086;2023-03-31T14:44:33;9.94;56.26
67364;HTU21D;54250;45.572;38.086;2023-03-31T14:46:59;9.77;56.89
67364;HTU21D;54250;45.572;38.086;2023-03-31T14:49:29;9.61;57.09
67364;HTU21D;54250;45.572;38.086;2023-03-31T14:52:01;9.46;57.41
67364;HTU21D;54250;45.572;38.086;2023-03-31T14:54:33;9.34;57.78
67364;HTU21D;54250;45.572;38.086;2023-03-31T14:57:03;9.23;57.91
67364;HTU21D;54250;45.572;38.086;2023-03-31T14:59:32;9.12;58.11
67364;HTU21D;54250;45.572;38.086;2023-03-31T15:02:00;9.03;58.37
67364;HTU21D;54250;45.572;38.086;2023-03-31T15:04:29;8.97;58.63
67364;HTU21D;54250;45.572;38.086;2023-03-31T15:06:58;8.93;58.63
67364;HTU21D;54250;45.572;38.086;2023-03-31T15:09:34;8.89;58.52
67364;HTU21D;54250;45.572;38.086;2023-03-31T15:12:12;8.83;58.63
67364;HTU21D;54250;45.572;38.086;2023-03-31T15:14:46;8.74;58.84
67364;HTU21D;54250;45.572;38.086;2023-03-31T15:17:24;8.67;59.03
67364;HTU21D;54250;45.572;38.086;2023-03-31T15:19:58;8.59;59.22
67364;HTU21D;54250;45.572;38.086;2023-03-31T15:22:28;8.52;59.35
67364;HTU21D;54250;45.572;38.086;2023-03-31T15:24:56;8.41;59.65
67364;HTU21D;54250;45.572;38.086;2023-03-31T15:27:37;8.32;59.84
67364;HTU21D;54250;45.572;38.086;2023-03-31T15:30:11;8.27;60.07
67364;HTU21D;54250;45.572;38.086;2023-03-31T15:32:39;8.17;60.35
67364;HTU21D;54250;45.572;38.086;2023-03-31T15:35:06;8.05;60.56
67364;HTU21D;54250;45.572;38.086;2023-03-31T15:37:44;7.96;60.81
67364;HTU21D;54250;45.572;38.086;2023-03-31T15:40:24;7.87;61.05
67364;HTU21D;54250;45.572;38.086;2023-03-31T15:43:02;7.78;61.29
67364;HTU21D;54250;45.572;38.086;2023-03-31T15:46:01;7.61;61.44
67364;HTU21D;54250;45.572;38.086;2023-03-31T15:51:05;7.48;61.97
67364;HTU21D;54250;45.572;38.086;2023-03-31T15:53:47;7.37;61.92
67364;HTU21D;54250;45.572;38.086;2023-03-31T15:56:40;7.24;62.10
67364;HTU21D;54250;45.572;38.086;2023-03-31T15:59:23;7.12;62.24
67364;HTU21D;54250;45.572;38.086;2023-03-31T16:01:51;7.01;62.53
67364;HTU21D;54250;45.572;38.086;2023-03-31T16:04:17;6.91;62.68
67364;HTU21D;54250;45.572;38.086;2023-03-31T16:09:39;6.74;62.92
67364;HTU21D;54250;45.572;38.086;2023-03-31T16:12:16;6.67;63.21
67364;HTU21D;54250;45.572;38.086;2023-03-31T16:14:54;6.54;63.33
67364;HTU21D;54250;45.572;38.086;2023-03-31T16:19:58;6.37;63.79
67364;HTU21D;54250;45.572;38.086;2023-03-31T16:22:31;6.30;63.83
67364;HTU21D;54250;45.572;38.086;2023-03-31T16:24:59;6.24;63.85
67364;HTU21D;54250;45.572;38.086;2023-03-31T16:27:25;6.19;63.91
67364;HTU21D;54250;45.572;38.086;2023-03-31T16:30:07;6.20;64.05
67364;HTU21D;54250;45.572;38.086;2023-03-31T16:32:33;6.20;64.37
67364;HTU21D;54250;45.572;38.086;2023-03-31T16:35:02;6.17;64.30
67364;HTU21D;54250;45.572;38.086;2023-03-31T16:37:29;6.14;64.43
67364;HTU21D;54250;45.572;38.086;2023-03-31T16:39:56;6.14;64.90
67364;HTU21D;54250;45.572;38.086;2023-03-31T16:42:22;6.22;65.31
67364;HTU21D;54250;45.572;38.086;2023-03-31T16:44:48;6.22;65.13
67364;HTU21D;54250;45.572;38.086;2023-03-31T16:47:14;6.16;65.07
67364;HTU21D;54250;45.572;38.086;2023-03-31T16:49:40;6.07;65.12
67364;HTU21D;54250;45.572;38.086;2023-03-31T16:52:07;6.04;65.69
67364;HTU21D;54250;45.572;38.086;2023-03-31T16:54:36;6.07;65.63
67364;HTU21D;54250;45.572;38.086;2023-03-31T16:57:02;6.00;65.73
67364;HTU21D;54250;45.572;38.086;2023-03-31T16:59:28;5.92;65.87
67364;HTU21D;54250;45.572;38.086;2023-03-31T17:01:55;5.90;65.91
67364;HTU21D;54250;45.572;38.086;2023-03-31T17:04:20;5.84;66.11
67364;HTU21D;54250;45.572;38.086;2023-03-31T17:06:47;5.74;66.11
67364;HTU21D;54250;45.572;38.086;2023-03-31T17:09:14;5.69;66.20
67364;HTU21D;54250;45.572;38.086;2023-03-31T17:11:40;5.64;66.52
67364;HTU21D;54250;45.572;38.086;2023-03-31T17:14:06;5.65;66.54
67364;HTU21D;54250;45.572;38.086;2023-03-31T17:16:32;5.60;66.66
67364;HTU21D;54250;45.572;38.086;2023-03-31T17:18:58;5.49;66.70
67364;HTU21D;54250;45.572;38.086;2023-03-31T17:21:24;5.42;66.98
67364;HTU21D;54250;45.572;38.086;2023-03-31T17:23:50;5.36;66.90
67364;HTU21D;54250;45.572;38.086;2023-03-31T17:26:17;5.37;66.94
67364;HTU21D;54250;45.572;38.086;2023-03-31T17:28:43;5.40;66.98
67364;HTU21D;54250;45.572;38.086;2023-03-31T17:31:14;5.36;67.07
67364;HTU21D;54250;45.572;38.086;2023-03-31T17:33:41;5.33;67.36
67364;HTU21D;54250;45.572;38.086;2023-03-31T17:36:07;5.32;67.74
67364;HTU21D;54250;45.572;38.086;2023-03-31T17:38:33;5.28;67.53
67364;HTU21D;54250;45.572;38.086;2023-03-31T17:41:03;5.22;67.72
67364;HTU21D;54250;45.572;38.086;2023-03-31T17:43:30;5.15;67.72
67364;HTU21D;54250;45.572;38.086;2023-03-31T17:46:00;5.10;67.73
67364;HTU21D;54250;45.572;38.086;2023-03-31T17:48:27;5.03;67.97
67364;HTU21D;54250;45.572;38.086;2023-03-31T17:50:53;5.04;68.04
67364;HTU21D;54250;45.572;38.086;2023-03-31T17:53:19;5.05;68.18
67364;HTU21D;54250;45.572;38.086;2023-03-31T17:55:45;5.02;68.29
67364;HTU21D;54250;45.572;38.086;2023-03-31T17:58:11;5.02;68.49
67364;HTU21D;54250;45.572;38.086;2023-03-31T18:00:39;5.07;68.90
67364;HTU21D;54250;45.572;38.086;2023-03-31T18:03:05;5.12;69.00
67364;HTU21D;54250;45.572;38.086;2023-03-31T18:05:34;5.12;68.71
67364;HTU21D;54250;45.572;38.086;2023-03-31T18:08:01;5.09;68.93
67364;HTU21D;54250;45.572;38.086;2023-03-31T18:10:28;5.09;69.71
67364;HTU21D;54250;45.572;38.086;2023-03-31T18:12:54;5.15;69.90
67364;HTU21D;54250;45.572;38.086;2023-03-31T18:15:24;5.15;70.35
67364;HTU21D;54250;45.572;38.086;2023-03-31T18:17:50;5.17;70.18
67364;HTU21D;54250;45.572;38.086;2023-03-31T18:20:16;5.21;70.38
67364;HTU21D;54250;45.572;38.086;2023-03-31T18:22:42;5.20;70.24
67364;HTU21D;54250;45.572;38.086;2023-03-31T18:25:09;5.20;70.67
67364;HTU21D;54250;45.572;38.086;2023-03-31T18:27:35;5.23;71.12
67364;HTU21D;54250;45.572;38.086;2023-03-31T18:30:03;5.23;70.95
67364;HTU21D;54250;45.572;38.086;2023-03-31T18:32:29;5.21;71.13
67364;HTU21D;54250;45.572;38.086;2023-03-31T18:34:55;5.22;71.51